Time;durP1;ratioP1;P1;durP2;ratioP2;P2;SDS_P1;SDS_P2;PMS_P1;PMS_P2;Temp;Humidity;BMP_temperature;BMP_pressure;BME280_temperature;BME280_humidity;BME280_pressure;Samples;Min_cycle;Max_cycle;Signal;HPM_P1;HPM_P2
2023/05/26 00:01:14;;;;;;;30.27;9.20;;;;;;;11.71;69.21;102748.00;5073753;28;20198;-65
2023/05/26 00:03:44;;;;;;;34.63;9.73;;;;;;;11.62;69.67;102745.66;5084492;28;20025;-65
2023/05/26 00:06:13;;;;;;;32.53;9.88;;;;;;;11.58;69.32;102742.22;5073710;28;20031;-65
2023/05/26 00:08:38;;;;;;;29.95;9.02;;;;;;;11.64;69.18;102734.94;5074433;28;20373;-65
2023/05/26 00:11:05;;;;;;;36.92;9.43;;;;;;;11.78;68.54;102746.81;5105867;28;20027;-65
2023/05/26 00:13:30;;;;;;;32.55;9.45;;;;;;;11.56;68.98;102738.78;5071405;28;20128;-65
2023/05/26 00:15:56;;;;;;;30.40;10.32;;;;;;;11.58;68.96;102744.03;5073721;28;20466;-65
2023/05/26 00:18:26;;;;;;;32.70;9.25;;;;;;;11.46;69.66;102752.47;5084626;28;20024;-65
2023/05/26 00:20:52;;;;;;;30.38;9.43;;;;;;;11.46;69.46;102761.31;5075304;28;20048;-66
2023/05/26 00:23:22;;;;;;;28.60;9.45;;;;;;;11.49;69.69;102766.53;5069908;28;20096;-65
2023/05/26 00:25:48;;;;;;;30.67;9.13;;;;;;;11.42;69.72;102746.38;5072472;28;20112;-65
2023/05/26 00:28:14;;;;;;;30.23;9.55;;;;;;;11.37;69.88;102765.19;5073339;28;20025;-65
2023/05/26 00:30:41;;;;;;;31.88;9.80;;;;;;;11.47;69.61;102756.88;5072291;28;20074;-65
2023/05/26 00:33:07;;;;;;;31.92;9.10;;;;;;;11.35;69.88;102761.72;5072724;28;20028;-65
2023/05/26 00:35:32;;;;;;;32.28;9.77;;;;;;;11.28;70.63;102767.31;5084472;28;20490;-65
2023/05/26 00:37:58;;;;;;;29.60;9.45;;;;;;;11.28;70.14;102757.53;5092931;28;20027;-65
2023/05/26 00:40:23;;;;;;;31.33;9.30;;;;;;;11.27;70.85;102770.91;5091632;28;20068;-65
2023/05/26 00:42:48;;;;;;;34.85;9.88;;;;;;;11.26;70.43;102771.81;5071292;28;20027;-65
2023/05/26 00:45:14;;;;;;;30.90;9.52;;;;;;;11.24;70.71;102769.22;5072885;28;20024;-65
2023/05/26 00:47:40;;;;;;;31.90;9.68;;;;;;;11.16;71.18;102765.09;5071550;28;20055;-65
2023/05/26 00:50:12;;;;;;;31.60;9.38;;;;;;;11.31;70.79;102769.88;5072676;28;20051;-65
2023/05/26 00:52:38;;;;;;;31.27;9.52;;;;;;;11.10;71.42;102766.16;5071700;28;20509;-65
2023/05/26 00:55:04;;;;;;;31.75;10.32;;;;;;;11.18;71.11;102766.78;5071459;28;20021;-65
2023/05/26 00:57:30;;;;;;;30.60;9.70;;;;;;;10.95;71.94;102766.69;5070578;28;20107;-66
2023/05/26 00:59:57;;;;;;;32.80;9.25;;;;;;;11.01;72.07;102772.69;5070190;28;20028;-65
2023/05/26 01:02:22;;;;;;;29.58;9.38;;;;;;;10.91;72.13;102766.81;5072459;28;20510;-65
2023/05/26 01:04:52;;;;;;;28.90;9.35;;;;;;;11.08;71.72;102763.53;5072461;28;20017;-65
2023/05/26 01:07:18;;;;;;;;;;;;;;;11.32;70.69;102769.84;5072129;28;20020;-65
2023/05/26 01:09:43;;;;;;;29.17;8.60;;;;;;;11.02;71.66;102770.88;5086729;28;20363;-65
2023/05/26 01:12:16;;;;;;;35.22;10.13;;;;;;;10.86;72.51;102778.53;5072070;28;20510;-65
2023/05/26 01:15:04;;;;;;;30.77;9.35;;;;;;;10.91;72.04;102779.22;5072312;28;20035;-65
2023/05/26 01:17:39;;;;;;;37.47;9.68;;;;;;;10.99;72.41;102776.31;5072117;28;20045;-65
2023/05/26 01:20:17;;;;;;;29.92;9.90;;;;;;;11.02;71.93;102771.75;5072084;28;20016;-65
2023/05/26 01:22:47;;;;;;;31.52;10.77;;;;;;;10.70;73.12;102780.78;5070387;28;20025;-66
2023/05/26 01:25:15;;;;;;;;;;;;;;;11.06;70.57;102773.41;5074482;28;20021;-65
2023/05/26 01:28:02;;;;;;;36.35;10.07;;;;;;;10.81;72.43;102781.31;5089663;28;19958;-65
2023/05/26 01:30:29;;;;;;;33.10;10.02;;;;;;;10.74;73.16;102771.81;5067493;28;20060;-65
2023/05/26 01:32:54;;;;;;;31.08;10.35;;;;;;;10.73;72.61;102783.34;5070852;28;20063;-65
2023/05/26 01:35:20;;;;;;;35.20;9.98;;;;;;;10.53;73.35;102780.47;5070621;28;20112;-65
2023/05/26 01:37:46;;;;;;;32.75;9.18;;;;;;;10.45;73.48;102783.38;5103957;28;20124;-65
2023/05/26 01:40:14;;;;;;;32.65;9.48;;;;;;;10.54;73.26;102784.88;5071767;28;20115;-65
2023/05/26 01:42:54;;;;;;;38.80;10.32;;;;;;;10.50;73.27;102781.47;5078002;28;20020;-65
2023/05/26 01:45:21;;;;;;;;;;;;;;;10.77;72.55;102787.69;5090809;28;20020;-65
2023/05/26 01:47:52;;;;;;;36.55;9.73;;;;;;;10.47;73.20;102778.91;5080928;28;19962;-65
2023/05/26 01:50:21;;;;;;;29.50;9.63;;;;;;;10.37;73.89;102786.28;5069806;28;20051;-65
2023/05/26 01:52:51;;;;;;;39.10;9.82;;;;;;;10.37;73.61;102785.41;5070717;28;20056;-65
2023/05/26 01:55:20;;;;;;;31.55;9.48;;;;;;;10.33;74.12;102779.31;5070066;28;20472;-65
2023/05/26 01:57:48;;;;;;;33.65;10.50;;;;;;;10.28;73.84;102783.91;5070646;28;20032;-65
2023/05/26 02:00:13;;;;;;;29.17;9.05;;;;;;;10.21;74.18;102775.22;5081083;28;20016;-65
2023/05/26 02:02:41;;;;;;;35.85;9.65;;;;;;;10.35;74.13;102776.59;5092165;28;20017;-65
2023/05/26 02:05:07;;;;;;;36.40;11.50;;;;;;;10.34;74.03;102791.69;5077842;28;20017;-65
2023/05/26 02:07:34;;;;;;;31.70;9.32;;;;;;;10.27;74.01;102782.16;5070293;28;20094;-65
2023/05/26 02:10:03;;;;;;;34.40;9.50;;;;;;;10.41;74.60;102787.94;5053636;28;20020;-65
2023/05/26 02:12:28;;;;;;;32.17;9.65;;;;;;;10.36;73.71;102778.34;5071524;28;20021;-65
2023/05/26 02:14:53;;;;;;;39.22;9.15;;;;;;;10.38;73.91;102788.03;5070612;28;20378;-65
2023/05/26 02:17:19;;;;;;;29.92;10.45;;;;;;;10.31;74.00;102783.81;5080748;28;20035;-65
2023/05/26 02:19:44;;;;;;;30.17;9.70;;;;;;;10.30;74.55;102790.06;5090204;28;20104;-65
2023/05/26 02:22:12;;;;;;;33.50;9.50;;;;;;;10.08;74.86;102799.56;5092330;28;20507;-65
2023/05/26 02:24:38;;;;;;;33.17;9.48;;;;;;;10.17;74.52;102791.28;5079169;28;20052;-65
2023/05/26 02:27:03;;;;;;;31.90;9.82;;;;;;;10.08;75.14;102800.41;5070479;28;20097;-65
2023/05/26 02:29:29;;;;;;;29.27;9.05;;;;;;;10.15;74.91;102782.53;5069662;28;20380;-65
2023/05/26 02:31:54;;;;;;;35.10;9.68;;;;;;;10.11;74.59;102795.00;5071573;28;20356;-64
2023/05/26 02:34:20;;;;;;;34.92;9.55;;;;;;;10.04;75.02;102798.78;5077269;28;20016;-64
2023/05/26 02:36:45;;;;;;;32.00;10.02;;;;;;;10.08;74.79;102803.06;5071136;28;20027;-65
2023/05/26 02:39:11;;;;;;;45.13;9.85;;;;;;;10.06;74.88;102796.06;5071329;28;20031;-64
2023/05/26 02:41:36;;;;;;;38.08;10.20;;;;;;;9.95;75.21;102810.56;5070098;28;20108;-65
2023/05/26 02:44:01;;;;;;;41.85;10.40;;;;;;;9.75;75.80;102800.47;5070953;28;20434;-64
2023/05/26 02:46:27;;;;;;;32.88;9.55;;;;;;;9.95;75.08;102796.38;5070707;28;20028;-65
2023/05/26 02:48:55;;;;;;;34.15;10.05;;;;;;;9.85;75.55;102786.94;5068655;28;20029;-64
2023/05/26 02:51:20;;;;;;;35.38;9.55;;;;;;;9.92;75.15;102781.41;5072976;28;20052;-65
2023/05/26 02:53:45;;;;;;;30.88;9.43;;;;;;;10.00;75.20;102790.03;5068028;28;20366;-65
2023/05/26 02:56:11;;;;;;;37.80;9.65;;;;;;;9.74;75.53;102782.81;5064187;28;20025;-64
2023/05/26 02:58:37;;;;;;;34.03;10.27;;;;;;;9.91;75.37;102792.06;5072730;28;20024;-65
2023/05/26 03:01:02;;;;;;;36.05;9.55;;;;;;;9.66;76.16;102803.41;5060432;28;20063;-65
2023/05/26 03:03:28;;;;;;;33.13;9.63;;;;;;;9.60;76.53;102805.34;5120092;27;20051;-65
2023/05/26 03:05:53;;;;;;;38.15;9.63;;;;;;;9.55;76.62;102794.84;5072703;28;20020;-65
2023/05/26 03:08:19;;;;;;;31.92;9.00;;;;;;;9.73;75.74;102801.44;5073592;28;20074;-65
2023/05/26 03:10:44;;;;;;;32.90;9.40;;;;;;;9.60;76.32;102784.09;5073187;28;20541;-65
2023/05/26 03:13:10;;;;;;;33.67;9.95;;;;;;;9.51;76.32;102798.50;5072431;28;20036;-65
2023/05/26 03:15:36;;;;;;;37.58;10.52;;;;;;;9.60;75.81;102792.94;5071637;28;20039;-65
2023/05/26 03:18:02;;;;;;;37.50;10.15;;;;;;;9.59;76.32;102799.19;5073539;28;20044;-65
2023/05/26 03:20:28;;;;;;;34.53;10.13;;;;;;;9.50;76.15;102792.34;5072573;28;20077;-65
2023/05/26 03:22:54;;;;;;;33.45;9.50;;;;;;;9.64;76.01;102791.94;5072450;28;20108;-65
2023/05/26 03:25:19;;;;;;;32.63;9.88;;;;;;;9.51;76.39;102811.78;5071800;28;20021;-66
2023/05/26 03:27:45;;;;;;;31.33;9.50;;;;;;;9.42;76.77;102799.63;5073400;28;20054;-65
2023/05/26 03:30:11;;;;;;;35.53;9.65;;;;;;;9.61;76.39;102815.06;5070622;28;20055;-65
2023/05/26 03:32:36;;;;;;;35.47;9.50;;;;;;;9.49;76.47;102819.78;5073514;28;20054;-64
2023/05/26 03:35:02;;;;;;;36.30;8.85;;;;;;;9.44;76.69;102812.84;5071909;28;20040;-65
2023/05/26 03:37:28;;;;;;;38.00;9.93;;;;;;;9.35;77.08;102808.66;5063624;28;20040;-65
2023/05/26 03:39:53;;;;;;;35.80;10.55;;;;;;;9.42;76.45;102817.34;5053836;28;20013;-65
2023/05/26 03:42:19;;;;;;;37.72;10.10;;;;;;;9.57;76.50;102818.72;5071535;28;20032;-65
2023/05/26 03:44:44;;;;;;;36.70;10.65;;;;;;;9.39;76.73;102823.63;5073687;28;20051;-65
2023/05/26 03:47:12;;;;;;;43.85;10.07;;;;;;;9.49;76.36;102833.06;5069065;28;20027;-65
2023/05/26 03:49:38;;;;;;;36.75;9.70;;;;;;;9.43;76.95;102837.69;5070839;28;20407;-64
2023/05/26 03:52:03;;;;;;;34.85;10.02;;;;;;;9.31;77.43;102833.56;5072843;28;20024;-65
2023/05/26 03:54:30;;;;;;;35.65;9.45;;;;;;;9.49;76.92;102830.41;5055591;28;20027;-65
2023/05/26 03:56:55;;;;;;;40.08;10.07;;;;;;;9.32;77.32;102825.56;5075079;28;20023;-65
2023/05/26 03:59:20;;;;;;;42.67;11.98;;;;;;;9.38;77.09;102829.81;5085089;28;20024;-65
2023/05/26 04:01:46;;;;;;;36.95;10.60;;;;;;;9.26;77.69;102832.78;5093676;28;20034;-65
2023/05/26 04:04:11;;;;;;;36.95;10.80;;;;;;;9.31;77.43;102828.25;5077876;28;20054;-65
2023/05/26 04:06:37;;;;;;;49.30;11.73;;;;;;;9.37;77.29;102829.88;5072636;28;20034;-65
2023/05/26 04:09:07;;;;;;;35.55;11.02;;;;;;;9.31;77.81;102831.75;5071804;28;20021;-65
2023/05/26 04:11:33;;;;;;;39.42;10.32;;;;;;;9.45;77.56;102825.25;5073471;28;20549;-65
2023/05/26 04:13:58;;;;;;;35.10;11.00;;;;;;;9.31;77.63;102830.91;5072956;28;20103;-64
2023/05/26 04:16:26;;;;;;;33.00;9.70;;;;;;;9.29;77.98;102830.06;5083835;28;20031;-65
2023/05/26 04:18:52;;;;;;;37.42;10.65;;;;;;;9.37;77.64;102821.91;5077963;28;20012;-65
2023/05/26 04:21:17;;;;;;;34.50;9.70;;;;;;;9.32;77.40;102827.31;5073269;28;20090;-65
2023/05/26 04:23:43;;;;;;;38.10;9.95;;;;;;;9.31;77.52;102838.88;5071655;28;20021;-66
2023/05/26 04:26:08;;;;;;;40.22;11.10;;;;;;;9.22;77.87;102829.34;5064769;28;20391;-65
2023/05/26 04:28:34;;;;;;;37.45;10.38;;;;;;;9.44;77.35;102844.72;5064473;28;20545;-65
2023/05/26 04:31:01;;;;;;;33.90;11.00;;;;;;;9.42;77.62;102835.94;5071929;28;20017;-65
2023/05/26 04:33:26;;;;;;;30.83;10.70;;;;;;;9.44;77.33;102845.63;5085107;28;20035;-65
2023/05/26 04:35:52;;;;;;;36.08;10.35;;;;;;;9.38;77.80;102842.22;5073216;28;20029;-65
2023/05/26 04:38:20;;;;;;;41.40;12.50;;;;;;;9.32;78.11;102846.81;5072890;28;20547;-65
2023/05/26 04:40:46;;;;;;;32.65;9.70;;;;;;;9.43;77.70;102848.31;5071334;28;20012;-65
2023/05/26 04:43:12;;;;;;;33.30;10.73;;;;;;;9.51;77.20;102843.66;5073133;28;20097;-65
2023/05/26 04:45:40;;;;;;;37.30;11.30;;;;;;;9.42;77.84;102844.78;5071180;28;20024;-65
2023/05/26 04:48:08;;;;;;;35.78;11.32;;;;;;;9.57;77.69;102851.47;5061901;28;20162;-65
2023/05/26 04:50:38;;;;;;;38.45;11.68;;;;;;;9.23;78.61;102854.13;5084274;28;20036;-65
2023/05/26 04:53:05;;;;;;;35.25;11.63;;;;;;;9.26;78.81;102849.59;5079334;28;20033;-65
2023/05/26 04:55:30;;;;;;;39.08;11.55;;;;;;;9.22;79.18;102863.88;5071120;28;20047;-65
2023/05/26 04:57:56;;;;;;;30.52;10.75;;;;;;;9.29;78.81;102848.66;5054868;28;20483;-64
2023/05/26 05:00:21;;;;;;;44.15;12.05;;;;;;;9.34;78.53;102862.69;5071900;28;20025;-65
2023/05/26 05:02:47;;;;;;;39.42;12.10;;;;;;;9.47;78.44;102856.16;5070907;28;20111;-65
2023/05/26 05:05:15;;;;;;;38.22;11.65;;;;;;;9.35;78.98;102863.56;5072230;28;20128;-65
2023/05/26 05:07:41;;;;;;;36.30;11.13;;;;;;;9.37;79.35;102861.75;5075250;28;20028;-65
2023/05/26 05:10:07;;;;;;;35.75;10.82;;;;;;;9.38;79.22;102872.31;5070759;28;20031;-65
2023/05/26 05:12:33;;;;;;;42.05;11.45;;;;;;;9.32;79.30;102857.44;5071605;28;20028;-65
2023/05/26 05:14:58;;;;;;;39.85;11.10;;;;;;;9.38;79.07;102855.50;5070021;28;20067;-65
2023/05/26 05:17:23;;;;;;;39.92;10.55;;;;;;;9.51;78.68;102857.81;5104836;28;20048;-65
2023/05/26 05:19:51;;;;;;;41.22;10.95;;;;;;;9.67;77.91;102860.91;5072108;28;20099;-65
2023/05/26 05:22:17;;;;;;;30.48;10.70;;;;;;;9.74;78.28;102861.66;5071981;28;20027;-65
2023/05/26 05:24:42;;;;;;;40.88;11.18;;;;;;;9.73;77.85;102859.88;5071572;28;20108;-65
2023/05/26 05:27:08;;;;;;;32.92;10.88;;;;;;;9.81;77.94;102870.31;5062332;28;20033;-65
2023/05/26 05:29:33;;;;;;;37.10;10.10;;;;;;;9.75;77.88;102866.91;5069963;28;20173;-65
2023/05/26 05:31:58;;;;;;;41.22;11.27;;;;;;;9.72;78.31;102869.66;5071883;28;20483;-65
2023/05/26 05:34:24;;;;;;;44.78;12.88;;;;;;;9.85;77.35;102877.28;5069394;28;20039;-64
2023/05/26 05:36:49;;;;;;;36.22;10.77;;;;;;;9.93;77.67;102878.81;5070366;28;20029;-65
2023/05/26 05:39:15;;;;;;;33.13;10.50;;;;;;;9.96;76.75;102875.22;5069308;28;20032;-65
2023/05/26 05:41:40;;;;;;;34.42;9.45;;;;;;;10.11;76.79;102872.13;5086187;28;20024;-65
2023/05/26 05:44:05;;;;;;;35.92;10.95;;;;;;;10.12;75.88;102868.56;5081559;28;20024;-65
2023/05/26 05:46:31;;;;;;;38.50;10.63;;;;;;;10.08;76.37;102866.88;5069652;28;20032;-65
2023/05/26 05:48:56;;;;;;;38.55;12.10;;;;;;;10.09;75.21;102865.09;5103595;28;20422;-65
2023/05/26 05:51:22;;;;;;;37.05;11.55;;;;;;;10.15;75.83;102876.44;5070969;28;20052;-65
2023/05/26 05:53:47;;;;;;;38.33;11.68;;;;;;;10.16;75.59;102877.31;5070095;28;20472;-66
2023/05/26 05:56:13;;;;;;;31.83;10.68;;;;;;;10.17;75.68;102893.22;5069878;28;20154;-65
2023/05/26 05:58:38;;;;;;;40.05;11.63;;;;;;;10.24;75.72;102889.47;5073666;28;20028;-64
2023/05/26 06:01:04;;;;;;;37.30;11.25;;;;;;;10.27;74.40;102887.69;5068992;28;20035;-65
2023/05/26 06:03:29;;;;;;;34.40;10.35;;;;;;;10.33;74.40;102892.81;5067788;28;20475;-65
2023/05/26 06:05:54;;;;;;;33.65;10.95;;;;;;;10.51;74.01;102892.28;5071458;28;20324;-65
2023/05/26 06:08:20;;;;;;;35.72;10.35;;;;;;;10.49;73.89;102890.56;5071380;28;20025;-65
2023/05/26 06:10:45;;;;;;;42.20;12.32;;;;;;;10.64;73.68;102896.28;5069887;28;20124;-65
2023/05/26 06:13:11;;;;;;;32.53;9.68;;;;;;;10.71;73.39;102902.31;5071521;28;20082;-65
2023/05/26 06:15:36;;;;;;;39.97;10.98;;;;;;;10.74;72.86;102902.22;5084507;28;20032;-65
2023/05/26 06:18:02;;;;;;;34.92;10.40;;;;;;;10.88;73.34;102904.44;5072261;28;20135;-65
2023/05/26 06:20:27;;;;;;;45.35;11.07;;;;;;;10.93;72.90;102901.66;5066138;28;20082;-65
2023/05/26 06:22:52;;;;;;;40.17;10.52;;;;;;;10.93;71.99;102906.97;5063798;28;20033;-65
2023/05/26 06:25:18;;;;;;;35.50;10.20;;;;;;;10.97;71.74;102900.63;5058959;28;20071;-65
2023/05/26 06:27:44;;;;;;;36.05;10.98;;;;;;;11.01;71.22;102910.28;5058020;28;20020;-65
2023/05/26 06:30:10;;;;;;;40.00;11.07;;;;;;;11.05;71.74;102914.56;5074728;28;20039;-65
2023/05/26 06:32:38;;;;;;;36.20;11.38;;;;;;;11.14;70.51;102909.81;5075482;28;20029;-65
2023/05/26 06:35:04;;;;;;;33.05;10.43;;;;;;;11.17;71.63;102905.31;5074166;28;20437;-65
2023/05/26 06:37:30;;;;;;;34.00;9.88;;;;;;;11.39;70.84;102902.81;5075538;28;20024;-65
2023/05/26 06:39:56;;;;;;;36.05;10.18;;;;;;;11.37;69.57;102905.53;5072613;28;20383;-65
2023/05/26 06:42:21;;;;;;;38.22;10.07;;;;;;;11.47;69.64;102896.31;5074673;28;20387;-65
2023/05/26 06:44:47;;;;;;;35.83;10.30;;;;;;;11.67;69.54;102908.94;5073793;28;20017;-65
2023/05/26 06:47:12;;;;;;;33.72;9.68;;;;;;;11.60;69.33;102908.28;5074420;28;20028;-65
2023/05/26 06:49:38;;;;;;;36.90;10.50;;;;;;;11.65;68.68;102905.47;5073962;28;20050;-65
2023/05/26 06:52:03;;;;;;;32.42;10.13;;;;;;;11.76;68.87;102905.94;5073988;28;20070;-65
2023/05/26 06:54:29;;;;;;;39.50;10.38;;;;;;;11.80;68.22;102906.75;5063305;28;20418;-65
2023/05/26 06:56:54;;;;;;;32.85;10.45;;;;;;;12.00;67.56;102906.94;5102681;28;20601;-65
2023/05/26 06:59:20;;;;;;;36.60;11.02;;;;;;;12.00;67.07;102906.94;5073506;28;20387;-65
2023/05/26 07:01:47;;;;;;;36.60;10.05;;;;;;;11.95;67.39;102911.56;5074168;28;20018;-65
2023/05/26 07:04:13;;;;;;;32.95;9.80;;;;;;;12.09;67.81;102894.16;5073897;28;20025;-65
2023/05/26 07:06:38;;;;;;;30.60;9.77;;;;;;;12.28;67.17;102912.13;5074576;28;20039;-65
2023/05/26 07:09:03;;;;;;;34.47;10.63;;;;;;;12.33;67.18;102903.94;5072842;28;20403;-65
2023/05/26 07:11:29;;;;;;;41.10;11.05;;;;;;;12.37;66.57;102923.38;5105107;27;20032;-65
2023/05/26 07:13:55;;;;;;;37.72;10.68;;;;;;;12.36;65.80;102913.66;5071584;28;20078;-65
2023/05/26 07:16:21;;;;;;;39.70;11.05;;;;;;;12.27;66.21;102915.72;5069884;28;20029;-65
2023/05/26 07:18:46;;;;;;;35.28;10.65;;;;;;;12.31;66.11;102907.59;5071857;28;20516;-65
2023/05/26 07:21:11;;;;;;;33.25;10.20;;;;;;;12.37;65.14;102910.03;5069216;28;20067;-65
2023/05/26 07:23:37;;;;;;;39.38;11.88;;;;;;;12.41;66.07;102900.97;5060226;28;20020;-65
2023/05/26 07:26:02;;;;;;;41.58;10.65;;;;;;;12.39;64.48;102916.19;5073353;28;20035;-65
2023/05/26 07:28:28;;;;;;;31.85;9.23;;;;;;;12.36;64.64;102911.84;5072592;28;20029;-65
2023/05/26 07:30:53;;;;;;;34.45;10.38;;;;;;;12.54;64.40;102910.28;5072968;28;20451;-65
2023/05/26 07:33:21;;;;;;;31.35;9.77;;;;;;;12.63;64.36;102923.25;5068473;28;20024;-65
2023/05/26 07:35:46;;;;;;;36.22;9.65;;;;;;;12.69;63.42;102914.16;5070153;28;20031;-65
2023/05/26 07:38:11;;;;;;;37.03;10.43;;;;;;;12.71;63.47;102915.84;5079022;28;20550;-65
2023/05/26 07:40:39;;;;;;;41.83;10.13;;;;;;;12.73;63.78;102918.44;5075132;28;20032;-65
2023/05/26 07:43:04;;;;;;;30.10;9.07;;;;;;;12.83;63.28;102914.50;5073589;28;20020;-65
2023/05/26 07:45:30;;;;;;;33.92;10.10;;;;;;;12.82;62.38;102918.06;5071181;28;20032;-65
2023/05/26 07:47:55;;;;;;;34.50;9.48;;;;;;;12.85;62.39;102914.41;5065497;28;20013;-65
2023/05/26 07:50:21;;;;;;;37.08;9.63;;;;;;;12.98;62.06;102915.69;5082367;28;20055;-65
2023/05/26 07:52:48;;;;;;;33.72;9.32;;;;;;;13.20;61.81;102918.34;5073275;28;20442;-65
2023/05/26 07:55:14;;;;;;;28.73;9.85;;;;;;;13.29;61.35;102906.44;5072554;28;20112;-65
2023/05/26 07:57:39;;;;;;;33.45;9.00;;;;;;;13.38;61.83;102916.75;5061219;28;20096;-65
2023/05/26 08:00:05;;;;;;;31.65;8.70;;;;;;;13.63;59.64;102919.25;5072587;28;20418;-65
2023/05/26 08:02:31;;;;;;;30.85;9.10;;;;;;;13.70;58.74;102923.41;5073362;28;20021;-65
2023/05/26 08:04:59;;;;;;;39.03;10.10;;;;;;;13.80;58.37;102913.19;5071899;28;20074;-65
2023/05/26 08:07:24;;;;;;;33.85;9.35;;;;;;;14.00;58.28;102923.91;5065312;28;20064;-65
2023/05/26 08:09:52;;;;;;;34.80;9.80;;;;;;;14.14;57.75;102903.66;5058086;28;20523;-65
2023/05/26 08:12:20;;;;;;;30.58;9.98;;;;;;;14.29;57.58;102922.59;5104591;28;20032;-65
2023/05/26 08:14:48;;;;;;;26.30;8.88;;;;;;;14.31;57.11;102919.84;5064494;28;20460;-65
2023/05/26 08:17:14;;;;;;;27.30;9.05;;;;;;;14.44;57.67;102926.38;5069590;28;20036;-65
2023/05/26 08:19:39;;;;;;;35.05;9.02;;;;;;;14.49;57.58;102913.63;5072196;28;20107;-65
2023/05/26 08:22:05;;;;;;;30.38;8.85;;;;;;;14.61;55.35;102920.25;5072872;28;20108;-65
2023/05/26 08:24:30;;;;;;;24.13;8.35;;;;;;;14.65;54.73;102921.00;5063523;28;20024;-65
2023/05/26 08:26:56;;;;;;;27.77;8.30;;;;;;;14.73;55.13;102900.03;5068265;28;20032;-65
2023/05/26 08:29:22;;;;;;;29.25;8.85;;;;;;;14.69;55.71;102909.19;5064216;28;20395;-65
2023/05/26 08:31:50;;;;;;;29.15;8.10;;;;;;;14.82;54.88;102918.34;5070119;28;20059;-66
2023/05/26 08:34:17;;;;;;;28.30;9.00;;;;;;;14.84;54.61;102905.78;5061948;28;20028;-66
2023/05/26 08:36:42;;;;;;;27.10;8.55;;;;;;;14.88;54.29;102910.06;5070133;28;20063;-66
2023/05/26 08:39:08;;;;;;;33.03;9.15;;;;;;;14.97;54.46;102914.06;5067327;28;20071;-68
2023/05/26 08:41:43;;;;;;;26.85;9.75;;;;;;;14.96;54.63;102917.72;5067441;28;20025;-65
2023/05/26 08:44:08;;;;;;;27.75;8.15;;;;;;;15.05;53.22;102917.25;5092223;28;20030;-66
2023/05/26 08:46:36;;;;;;;34.47;9.40;;;;;;;15.17;52.39;102919.31;5071592;28;20039;-66
2023/05/26 08:49:02;;;;;;;27.60;9.48;;;;;;;15.15;52.26;102910.50;5073628;28;20122;-66
2023/05/26 08:51:36;;;;;;;25.27;8.93;;;;;;;15.30;53.25;102914.25;5069086;28;20041;-64
2023/05/26 08:54:01;;;;;;;27.92;8.27;;;;;;;15.23;53.51;102904.75;5054755;28;20052;-64
2023/05/26 08:56:27;;;;;;;25.67;8.30;;;;;;;15.43;53.46;102912.66;5070820;28;20029;-66
2023/05/26 08:58:54;;;;;;;25.63;8.10;;;;;;;15.62;51.12;102907.25;5063313;28;20074;-62
2023/05/26 09:01:19;;;;;;;30.70;9.32;;;;;;;15.62;50.64;102907.25;5051074;28;20025;-62
2023/05/26 09:03:45;;;;;;;21.10;7.72;;;;;;;15.77;50.71;102911.00;5061890;28;20400;-62
2023/05/26 09:06:10;;;;;;;25.52;8.00;;;;;;;15.92;49.34;102916.50;5072202;28;20058;-62
2023/05/26 09:08:35;;;;;;;26.40;7.88;;;;;;;15.99;48.71;102918.78;5072280;28;20024;-62
2023/05/26 09:11:23;;;;;;;24.10;7.93;;;;;;;16.11;50.23;102906.50;5062609;28;20028;-62
2023/05/26 09:13:56;;;;;;;23.02;8.02;;;;;;;16.13;48.92;102912.69;5084179;28;20056;-62
2023/05/26 09:16:26;;;;;;;23.75;8.40;;;;;;;16.28;47.90;102916.34;5091587;28;20040;-62
2023/05/26 09:18:56;;;;;;;29.60;8.80;;;;;;;16.37;48.54;102912.31;5068772;28;20024;-62
2023/05/26 09:21:22;;;;;;;24.38;8.07;;;;;;;16.24;46.31;102912.13;5051830;28;20141;-62
2023/05/26 09:23:54;;;;;;;30.70;8.30;;;;;;;16.34;47.04;102921.38;5062856;28;20028;-62
2023/05/26 09:26:30;;;;;;;25.45;8.32;;;;;;;16.30;47.80;102915.31;5071839;28;20115;-62
2023/05/26 09:28:59;;;;;;;21.17;7.72;;;;;;;16.40;46.31;102910.31;5068477;28;20048;-62
2023/05/26 09:31:25;;;;;;;20.88;7.82;;;;;;;16.56;45.96;102911.22;5070822;28;20055;-62
2023/05/26 09:33:53;;;;;;;19.88;7.25;;;;;;;16.60;44.29;102927.16;5070385;28;20103;-62
2023/05/26 09:36:22;;;;;;;22.88;8.10;;;;;;;16.57;44.74;102925.50;5068700;28;20403;-62
2023/05/26 09:38:50;;;;;;;23.65;7.65;;;;;;;16.58;44.32;102916.50;5070359;28;20028;-62
2023/05/26 09:41:20;;;;;;;20.30;7.82;;;;;;;16.75;46.21;102924.47;5070318;28;20036;-62
2023/05/26 09:43:45;;;;;;;24.30;8.48;;;;;;;16.91;45.35;102923.66;5070116;28;20043;-61
2023/05/26 09:46:22;;;;;;;24.85;8.63;;;;;;;16.89;46.34;102918.38;5070178;28;20028;-62
2023/05/26 09:48:53;;;;;;;24.58;8.32;;;;;;;16.97;46.12;102918.81;5062665;28;20025;-62
2023/05/26 09:51:20;;;;;;;23.48;7.65;;;;;;;17.13;44.96;102916.09;5061661;28;20048;-62
2023/05/26 09:53:46;;;;;;;20.40;7.07;;;;;;;17.19;43.72;102915.75;5052605;28;20461;-62
2023/05/26 09:56:11;;;;;;;23.55;8.05;;;;;;;17.19;45.16;102913.06;5097469;28;20028;-62
2023/05/26 09:58:40;;;;;;;22.33;7.97;;;;;;;17.36;44.80;102909.38;5069758;28;20028;-62
2023/05/26 10:01:07;;;;;;;22.45;7.30;;;;;;;17.46;43.70;102912.38;5061930;28;20036;-62
2023/05/26 10:03:33;;;;;;;17.55;7.13;;;;;;;17.56;43.64;102910.00;5059392;28;20039;-62
2023/05/26 10:05:59;;;;;;;23.60;8.18;;;;;;;17.61;43.18;102905.22;5063290;28;20067;-61
2023/05/26 10:08:30;;;;;;;18.13;7.43;;;;;;;17.73;43.30;102907.16;5063789;28;20028;-62
2023/05/26 10:10:56;;;;;;;18.60;6.80;;;;;;;18.04;43.62;102908.91;5069756;28;20479;-61
2023/05/26 10:13:22;;;;;;;22.73;7.97;;;;;;;18.32;42.74;102908.06;5069164;28;20039;-62
2023/05/26 10:15:48;;;;;;;19.92;7.28;;;;;;;18.26;41.19;102905.72;5070266;28;20120;-62
2023/05/26 10:18:16;;;;;;;23.63;7.93;;;;;;;18.40;40.67;102899.47;5070976;28;20032;-63
2023/05/26 10:20:47;;;;;;;16.25;6.72;;;;;;;18.50;38.98;102897.03;5071101;28;20028;-61
2023/05/26 10:23:38;;;;;;;21.30;7.15;;;;;;;18.51;40.17;102896.09;5071318;28;20033;-62
2023/05/26 10:26:10;;;;;;;16.40;6.43;;;;;;;18.63;40.14;102895.31;5071420;28;20021;-62
2023/05/26 10:28:43;;;;;;;17.52;6.85;;;;;;;18.74;39.74;102892.81;5070132;28;20031;-62
2023/05/26 10:31:08;;;;;;;31.25;7.30;;;;;;;18.77;39.81;102891.75;5071133;28;20036;-61
2023/05/26 10:33:42;;;;;;;27.48;7.53;;;;;;;18.58;39.58;102892.91;5070788;28;20021;-62
2023/05/26 10:36:13;;;;;;;21.35;6.68;;;;;;;18.99;38.21;102888.50;5083708;28;20476;-62
2023/05/26 10:38:43;;;;;;;23.58;7.40;;;;;;;18.78;38.63;102897.03;5051559;28;20546;-61
2023/05/26 10:41:15;;;;;;;18.65;7.13;;;;;;;18.69;39.52;102884.13;5051633;28;20024;-61
2023/05/26 10:43:42;;;;;;;18.65;6.75;;;;;;;18.83;37.85;102892.22;5051495;28;20029;-61
2023/05/26 10:46:08;;;;;;;24.73;7.10;;;;;;;18.88;38.83;102889.19;5068068;28;20032;-61
2023/05/26 10:48:38;;;;;;;23.35;7.47;;;;;;;18.79;38.68;102884.41;5069408;28;20103;-61
2023/05/26 10:51:09;;;;;;;22.67;7.60;;;;;;;19.00;38.03;102879.44;5069736;28;20110;-61
2023/05/26 10:53:46;;;;;;;25.13;8.02;;;;;;;19.21;38.66;102872.63;5069925;28;20026;-61
2023/05/26 10:56:13;;;;;;;21.92;7.40;;;;;;;19.33;36.96;102883.56;5070138;28;20060;-62
2023/05/26 10:58:40;;;;;;;22.83;8.45;;;;;;;19.42;38.16;102888.34;5069829;28;20032;-61
2023/05/26 11:01:11;;;;;;;18.38;6.50;;;;;;;19.66;37.70;102872.31;5070804;28;20101;-61
2023/05/26 11:03:43;;;;;;;19.85;7.03;;;;;;;19.81;36.47;102876.63;5070823;28;20583;-61
2023/05/26 11:06:12;;;;;;;17.95;6.20;;;;;;;20.00;35.39;102878.94;5071291;28;20017;-61
2023/05/26 11:08:48;;;;;;;21.17;6.93;;;;;;;20.09;35.77;102874.69;5069730;28;20039;-61
2023/05/26 11:11:26;;;;;;;19.77;6.90;;;;;;;19.94;36.17;102874.81;5072124;28;20506;-61
2023/05/26 11:14:03;;;;;;;20.58;6.63;;;;;;;20.12;36.71;102877.19;5074435;28;20186;-61
2023/05/26 11:16:34;;;;;;;19.95;6.40;;;;;;;20.19;35.65;102875.78;5074500;28;20093;-61